sensor_id;sensor_type;location;lat;lon;timestamp;temperature;humidity
16402;DHT22;8310;44.626;11.176;2023-06-05T00:01:23;20.50;58.50
16402;DHT22;8310;44.626;11.176;2023-06-05T00:03:51;20.50;58.50
16402;DHT22;8310;44.626;11.176;2023-06-05T00:06:18;20.50;58.50
16402;DHT22;8310;44.626;11.176;2023-06-05T00:08:45;20.60;58.60
16402;DHT22;8310;44.626;11.176;2023-06-05T00:11:12;20.50;58.60
16402;DHT22;8310;44.626;11.176;2023-06-05T00:13:41;20.60;58.60
16402;DHT22;8310;44.626;11.176;2023-06-05T00:16:08;20.60;58.60
16402;DHT22;8310;44.626;11.176;2023-06-05T00:18:35;20.60;58.60
16402;DHT22;8310;44.626;11.176;2023-06-05T00:21:03;20.60;58.60
16402;DHT22;8310;44.626;11.176;2023-06-05T00:23:30;20.60;58.60
16402;DHT22;8310;44.626;11.176;2023-06-05T00:25:58;20.60;58.60
16402;DHT22;8310;44.626;11.176;2023-06-05T00:28:25;20.60;58.60
16402;DHT22;8310;44.626;11.176;2023-06-05T00:30:54;20.60;58.60
16402;DHT22;8310;44.626;11.176;2023-06-05T00:33:21;20.60;58.60
16402;DHT22;8310;44.626;11.176;2023-06-05T00:35:48;20.50;58.60
16402;DHT22;8310;44.626;11.176;2023-06-05T00:38:15;20.50;58.60
16402;DHT22;8310;44.626;11.176;2023-06-05T00:40:42;20.60;58.80
16402;DHT22;8310;44.626;11.176;2023-06-05T00:43:09;20.50;58.80
16402;DHT22;8310;44.626;11.176;2023-06-05T00:45:37;20.60;58.80
16402;DHT22;8310;44.626;11.176;2023-06-05T00:48:06;20.60;58.90
16402;DHT22;8310;44.626;11.176;2023-06-05T00:50:33;20.60;58.90
16402;DHT22;8310;44.626;11.176;2023-06-05T00:53:02;20.60;58.90
16402;DHT22;8310;44.626;11.176;2023-06-05T00:55:30;20.60;58.90
16402;DHT22;8310;44.626;11.176;2023-06-05T00:57:57;20.70;59.00
16402;DHT22;8310;44.626;11.176;2023-06-05T01:00:25;20.70;59.00
16402;DHT22;8310;44.626;11.176;2023-06-05T01:02:52;20.70;59.00
16402;DHT22;8310;44.626;11.176;2023-06-05T01:05:23;20.70;59.00
16402;DHT22;8310;44.626;11.176;2023-06-05T01:07:51;20.70;59.00
16402;DHT22;8310;44.626;11.176;2023-06-05T01:10:19;20.70;59.00
16402;DHT22;8310;44.626;11.176;2023-06-05T01:12:52;20.70;59.00
16402;DHT22;8310;44.626;11.176;2023-06-05T01:15:20;20.70;59.10
16402;DHT22;8310;44.626;11.176;2023-06-05T01:17:54;20.70;59.00
16402;DHT22;8310;44.626;11.176;2023-06-05T01:20:21;20.70;59.00
16402;DHT22;8310;44.626;11.176;2023-06-05T01:22:50;20.70;59.00
16402;DHT22;8310;44.626;11.176;2023-06-05T01:25:18;20.70;59.00
16402;DHT22;8310;44.626;11.176;2023-06-05T01:27:48;20.70;59.10
16402;DHT22;8310;44.626;11.176;2023-06-05T01:30:18;20.70;59.10
16402;DHT22;8310;44.626;11.176;2023-06-05T01:32:52;20.70;59.10
16402;DHT22;8310;44.626;11.176;2023-06-05T01:35:20;20.70;59.10
16402;DHT22;8310;44.626;11.176;2023-06-05T01:37:55;20.80;59.20
16402;DHT22;8310;44.626;11.176;2023-06-05T01:40:24;20.80;59.20
16402;DHT22;8310;44.626;11.176;2023-06-05T01:42:51;20.70;59.10
16402;DHT22;8310;44.626;11.176;2023-06-05T01:45:20;20.80;59.20
16402;DHT22;8310;44.626;11.176;2023-06-05T01:47:47;20.80;59.20
16402;DHT22;8310;44.626;11.176;2023-06-05T01:50:15;20.80;59.20
16402;DHT22;8310;44.626;11.176;2023-06-05T01:52:42;20.80;59.30
16402;DHT22;8310;44.626;11.176;2023-06-05T01:55:13;20.80;59.30
16402;DHT22;8310;44.626;11.176;2023-06-05T01:57:40;20.80;59.30
16402;DHT22;8310;44.626;11.176;2023-06-05T02:00:08;20.80;59.30
16402;DHT22;8310;44.626;11.176;2023-06-05T02:02:38;20.80;59.30
16402;DHT22;8310;44.626;11.176;2023-06-05T02:05:07;20.80;59.30
16402;DHT22;8310;44.626;11.176;2023-06-05T02:07:35;20.80;59.30
16402;DHT22;8310;44.626;11.176;2023-06-05T02:10:04;20.80;59.30
16402;DHT22;8310;44.626;11.176;2023-06-05T02:12:32;20.80;59.30
16402;DHT22;8310;44.626;11.176;2023-06-05T02:15:00;20.80;59.30
16402;DHT22;8310;44.626;11.176;2023-06-05T02:17:27;20.80;59.30
16402;DHT22;8310;44.626;11.176;2023-06-05T02:19:54;20.80;59.90
16402;DHT22;8310;44.626;11.176;2023-06-05T02:22:21;20.80;59.30
16402;DHT22;8310;44.626;11.176;2023-06-05T02:24:48;20.80;59.40
16402;DHT22;8310;44.626;11.176;2023-06-05T02:27:17;20.80;59.40
16402;DHT22;8310;44.626;11.176;2023-06-05T02:29:46;20.80;59.40
16402;DHT22;8310;44.626;11.176;2023-06-05T02:32:13;20.80;59.30
16402;DHT22;8310;44.626;11.176;2023-06-05T02:34:40;20.80;59.40
16402;DHT22;8310;44.626;11.176;2023-06-05T02:37:07;20.80;59.40
16402;DHT22;8310;44.626;11.176;2023-06-05T02:39:37;20.80;59.40
16402;DHT22;8310;44.626;11.176;2023-06-05T02:42:04;20.80;59.40
16402;DHT22;8310;44.626;11.176;2023-06-05T02:44:33;20.80;59.40
16402;DHT22;8310;44.626;11.176;2023-06-05T02:47:02;20.80;59.50
16402;DHT22;8310;44.626;11.176;2023-06-05T02:49:29;20.90;59.60
16402;DHT22;8310;44.626;11.176;2023-06-05T02:52:00;20.80;59.40
16402;DHT22;8310;44.626;11.176;2023-06-05T02:54:28;20.90;59.50
16402;DHT22;8310;44.626;11.176;2023-06-05T02:56:56;20.80;59.50
16402;DHT22;8310;44.626;11.176;2023-06-05T02:59:25;20.80;59.40
16402;DHT22;8310;44.626;11.176;2023-06-05T03:01:52;20.80;59.50
16402;DHT22;8310;44.626;11.176;2023-06-05T03:04:21;20.80;59.50
16402;DHT22;8310;44.626;11.176;2023-06-05T03:06:49;20.80;59.50
16402;DHT22;8310;44.626;11.176;2023-06-05T03:09:18;20.80;59.50
16402;DHT22;8310;44.626;11.176;2023-06-05T03:11:46;20.80;59.50
16402;DHT22;8310;44.626;11.176;2023-06-05T03:14:13;20.80;59.50
16402;DHT22;8310;44.626;11.176;2023-06-05T03:16:40;20.80;59.50
16402;DHT22;8310;44.626;11.176;2023-06-05T03:19:08;20.80;59.50
16402;DHT22;8310;44.626;11.176;2023-06-05T03:21:37;20.90;59.60
16402;DHT22;8310;44.626;11.176;2023-06-05T03:24:06;20.80;59.60
16402;DHT22;8310;44.626;11.176;2023-06-05T03:26:34;20.80;59.50
16402;DHT22;8310;44.626;11.176;2023-06-05T03:29:01;20.80;59.60
16402;DHT22;8310;44.626;11.176;2023-06-05T03:31:28;20.80;59.60
16402;DHT22;8310;44.626;11.176;2023-06-05T03:33:55;20.80;59.60
16402;DHT22;8310;44.626;11.176;2023-06-05T03:36:23;20.80;59.60
16402;DHT22;8310;44.626;11.176;2023-06-05T03:38:52;20.80;59.60
16402;DHT22;8310;44.626;11.176;2023-06-05T03:41:19;20.80;59.60
16402;DHT22;8310;44.626;11.176;2023-06-05T03:43:46;20.70;59.60
16402;DHT22;8310;44.626;11.176;2023-06-05T03:46:14;20.80;59.60
16402;DHT22;8310;44.626;11.176;2023-06-05T03:48:44;20.80;59.60
16402;DHT22;8310;44.626;11.176;2023-06-05T03:51:12;20.70;59.60
16402;DHT22;8310;44.626;11.176;2023-06-05T03:53:39;20.70;59.60
16402;DHT22;8310;44.626;11.176;2023-06-05T03:56:10;20.70;59.60
16402;DHT22;8310;44.626;11.176;2023-06-05T03:58:37;20.70;59.60
16402;DHT22;8310;44.626;11.176;2023-06-05T04:01:05;20.70;59.60
16402;DHT22;8310;44.626;11.176;2023-06-05T04:03:32;20.70;59.60
16402;DHT22;8310;44.626;11.176;2023-06-05T04:06:02;20.70;59.60
16402;DHT22;8310;44.626;11.176;2023-06-05T04:08:30;20.70;59.60
16402;DHT22;8310;44.626;11.176;2023-06-05T04:10:57;20.70;59.70
16402;DHT22;8310;44.626;11.176;2023-06-05T04:13:25;20.70;59.70
16402;DHT22;8310;44.626;11.176;2023-06-05T04:15:53;20.70;59.70
16402;DHT22;8310;44.626;11.176;2023-06-05T04:18:20;20.70;59.70
16402;DHT22;8310;44.626;11.176;2023-06-05T04:20:47;20.70;59.70
16402;DHT22;8310;44.626;11.176;2023-06-05T04:23:14;20.70;59.70
16402;DHT22;8310;44.626;11.176;2023-06-05T04:25:42;20.70;59.80
16402;DHT22;8310;44.626;11.176;2023-06-05T04:28:11;20.70;59.80
16402;DHT22;8310;44.626;11.176;2023-06-05T04:30:40;20.70;59.80
16402;DHT22;8310;44.626;11.176;2023-06-05T04:33:09;20.70;59.80
16402;DHT22;8310;44.626;11.176;2023-06-05T04:35:36;20.80;59.90
16402;DHT22;8310;44.626;11.176;2023-06-05T04:38:03;20.70;59.80
16402;DHT22;8310;44.626;11.176;2023-06-05T04:40:30;20.70;59.80
16402;DHT22;8310;44.626;11.176;2023-06-05T04:42:57;20.70;59.80
16402;DHT22;8310;44.626;11.176;2023-06-05T04:45:25;20.70;59.80
16402;DHT22;8310;44.626;11.176;2023-06-05T04:47:53;20.70;59.80
16402;DHT22;8310;44.626;11.176;2023-06-05T04:50:21;20.80;59.90
16402;DHT22;8310;44.626;11.176;2023-06-05T04:52:50;20.80;60.00
16402;DHT22;8310;44.626;11.176;2023-06-05T04:55:17;20.80;59.90
16402;DHT22;8310;44.626;11.176;2023-06-05T04:57:44;20.80;60.00
16402;DHT22;8310;44.626;11.176;2023-06-05T05:00:14;20.80;60.00
16402;DHT22;8310;44.626;11.176;2023-06-05T05:02:41;20.80;60.00
16402;DHT22;8310;44.626;11.176;2023-06-05T05:05:10;20.80;60.00
16402;DHT22;8310;44.626;11.176;2023-06-05T05:07:39;20.80;60.10
16402;DHT22;8310;44.626;11.176;2023-06-05T05:10:07;20.80;60.10
16402;DHT22;8310;44.626;11.176;2023-06-05T05:12:35;20.90;60.20
16402;DHT22;8310;44.626;11.176;2023-06-05T05:15:02;20.90;60.20
16402;DHT22;8310;44.626;11.176;2023-06-05T05:17:29;20.90;60.20
16402;DHT22;8310;44.626;11.176;2023-06-05T05:19:56;20.90;60.30
16402;DHT22;8310;44.626;11.176;2023-06-05T05:22:25;20.90;60.30
16402;DHT22;8310;44.626;11.176;2023-06-05T05:24:52;20.90;60.30
16402;DHT22;8310;44.626;11.176;2023-06-05T05:27:19;21.00;60.50
16402;DHT22;8310;44.626;11.176;2023-06-05T05:29:47;21.00;60.50
16402;DHT22;8310;44.626;11.176;2023-06-05T05:32:14;21.00;60.50
16402;DHT22;8310;44.626;11.176;2023-06-05T05:34:41;21.10;60.60
16402;DHT22;8310;44.626;11.176;2023-06-05T05:37:08;21.10;60.60
16402;DHT22;8310;44.626;11.176;2023-06-05T05:39:37;21.10;60.50
16402;DHT22;8310;44.626;11.176;2023-06-05T05:42:04;21.10;60.50
16402;DHT22;8310;44.626;11.176;2023-06-05T05:44:31;21.10;60.50
16402;DHT22;8310;44.626;11.176;2023-06-05T05:46:58;21.20;60.50
16402;DHT22;8310;44.626;11.176;2023-06-05T05:49:26;21.20;60.50
16402;DHT22;8310;44.626;11.176;2023-06-05T05:51:53;21.20;60.60
16402;DHT22;8310;44.626;11.176;2023-06-05T05:54:20;21.20;60.60
16402;DHT22;8310;44.626;11.176;2023-06-05T05:56:53;21.30;60.70
16402;DHT22;8310;44.626;11.176;2023-06-05T05:59:21;21.30;60.70
16402;DHT22;8310;44.626;11.176;2023-06-05T06:01:48;21.30;60.70
16402;DHT22;8310;44.626;11.176;2023-06-05T06:04:15;21.40;60.80
16402;DHT22;8310;44.626;11.176;2023-06-05T06:06:43;21.40;60.80
16402;DHT22;8310;44.626;11.176;2023-06-05T06:09:12;21.40;60.80
16402;DHT22;8310;44.626;11.176;2023-06-05T06:11:40;21.40;60.90
16402;DHT22;8310;44.626;11.176;2023-06-05T06:14:08;21.40;60.70
16402;DHT22;8310;44.626;11.176;2023-06-05T06:16:36;21.50;60.80
16402;DHT22;8310;44.626;11.176;2023-06-05T06:19:03;21.50;60.70
16402;DHT22;8310;44.626;11.176;2023-06-05T06:21:31;21.50;60.70
16402;DHT22;8310;44.626;11.176;2023-06-05T06:23:58;21.50;60.70
16402;DHT22;8310;44.626;11.176;2023-06-05T06:26:25;21.50;60.80
16402;DHT22;8310;44.626;11.176;2023-06-05T06:28:53;21.50;61.50
16402;DHT22;8310;44.626;11.176;2023-06-05T06:31:24;21.60;60.80
16402;DHT22;8310;44.626;11.176;2023-06-05T06:33:51;21.60;60.90
16402;DHT22;8310;44.626;11.176;2023-06-05T06:36:18;21.60;60.90
16402;DHT22;8310;44.626;11.176;2023-06-05T06:38:45;21.60;60.90
16402;DHT22;8310;44.626;11.176;2023-06-05T06:41:12;21.70;61.00
16402;DHT22;8310;44.626;11.176;2023-06-05T06:43:39;21.70;61.10
16402;DHT22;8310;44.626;11.176;2023-06-05T06:46:07;21.70;61.00
16402;DHT22;8310;44.626;11.176;2023-06-05T06:48:35;21.70;61.00
16402;DHT22;8310;44.626;11.176;2023-06-05T06:51:02;21.80;61.10
16402;DHT22;8310;44.626;11.176;2023-06-05T06:53:29;21.80;61.10
16402;DHT22;8310;44.626;11.176;2023-06-05T06:55:56;21.80;61.10
16402;DHT22;8310;44.626;11.176;2023-06-05T06:58:24;21.80;61.10
16402;DHT22;8310;44.626;11.176;2023-06-05T07:00:52;21.90;61.20
16402;DHT22;8310;44.626;11.176;2023-06-05T07:03:19;21.90;61.30
16402;DHT22;8310;44.626;11.176;2023-06-05T07:05:47;22.00;62.30
16402;DHT22;8310;44.626;11.176;2023-06-05T07:08:15;22.00;61.60
16402;DHT22;8310;44.626;11.176;2023-06-05T07:10:42;22.10;61.70
16402;DHT22;8310;44.626;11.176;2023-06-05T07:13:09;22.20;61.80
16402;DHT22;8310;44.626;11.176;2023-06-05T07:15:37;22.30;61.80
16402;DHT22;8310;44.626;11.176;2023-06-05T07:18:04;22.30;61.80
16402;DHT22;8310;44.626;11.176;2023-06-05T07:20:31;22.40;61.70
16402;DHT22;8310;44.626;11.176;2023-06-05T07:23:00;22.40;62.40
16402;DHT22;8310;44.626;11.176;2023-06-05T07:25:27;22.40;61.50
16402;DHT22;8310;44.626;11.176;2023-06-05T07:27:54;22.40;61.50
16402;DHT22;8310;44.626;11.176;2023-06-05T07:30:21;22.40;61.50
16402;DHT22;8310;44.626;11.176;2023-06-05T07:32:55;22.40;61.20
16402;DHT22;8310;44.626;11.176;2023-06-05T07:35:22;22.30;60.80
16402;DHT22;8310;44.626;11.176;2023-06-05T07:37:49;22.30;60.80
16402;DHT22;8310;44.626;11.176;2023-06-05T07:40:18;22.20;60.70
16402;DHT22;8310;44.626;11.176;2023-06-05T07:42:46;22.10;60.70
16402;DHT22;8310;44.626;11.176;2023-06-05T07:45:13;22.00;60.70
16402;DHT22;8310;44.626;11.176;2023-06-05T07:47:40;22.00;60.80
16402;DHT22;8310;44.626;11.176;2023-06-05T07:50:07;22.00;61.60
16402;DHT22;8310;44.626;11.176;2023-06-05T07:52:35;21.90;60.70
16402;DHT22;8310;44.626;11.176;2023-06-05T07:55:02;21.90;60.80
16402;DHT22;8310;44.626;11.176;2023-06-05T07:57:31;21.90;60.80
16402;DHT22;8310;44.626;11.176;2023-06-05T08:00:01;21.90;60.80
16402;DHT22;8310;44.626;11.176;2023-06-05T08:02:30;21.90;60.90
16402;DHT22;8310;44.626;11.176;2023-06-05T08:04:57;21.90;60.80
16402;DHT22;8310;44.626;11.176;2023-06-05T08:07:25;21.90;61.00
16402;DHT22;8310;44.626;11.176;2023-06-05T08:09:52;21.80;60.80
16402;DHT22;8310;44.626;11.176;2023-06-05T08:12:19;21.80;60.80
16402;DHT22;8310;44.626;11.176;2023-06-05T08:14:48;21.80;60.80
16402;DHT22;8310;44.626;11.176;2023-06-05T08:17:15;21.80;60.90
16402;DHT22;8310;44.626;11.176;2023-06-05T08:19:42;21.70;60.80
16402;DHT22;8310;44.626;11.176;2023-06-05T08:22:09;21.70;60.80
16402;DHT22;8310;44.626;11.176;2023-06-05T08:24:37;21.60;60.60
16402;DHT22;8310;44.626;11.176;2023-06-05T08:27:04;21.60;60.80
16402;DHT22;8310;44.626;11.176;2023-06-05T08:29:32;21.60;60.70
16402;DHT22;8310;44.626;11.176;2023-06-05T08:32:04;21.60;60.70
16402;DHT22;8310;44.626;11.176;2023-06-05T08:34:34;21.60;60.70
16402;DHT22;8310;44.626;11.176;2023-06-05T08:37:01;21.50;60.60
16402;DHT22;8310;44.626;11.176;2023-06-05T08:39:29;21.50;60.60
16402;DHT22;8310;44.626;11.176;2023-06-05T08:41:58;21.50;60.60
16402;DHT22;8310;44.626;11.176;2023-06-05T08:44:27;21.50;60.60
16402;DHT22;8310;44.626;11.176;2023-06-05T08:46:56;21.50;60.70
16402;DHT22;8310;44.626;11.176;2023-06-05T08:49:27;21.50;60.70
16402;DHT22;8310;44.626;11.176;2023-06-05T08:51:57;21.50;60.80
16402;DHT22;8310;44.626;11.176;2023-06-05T08:54:28;21.50;60.80
16402;DHT22;8310;44.626;11.176;2023-06-05T08:56:58;21.50;60.70
16402;DHT22;8310;44.626;11.176;2023-06-05T08:59:25;21.50;60.70
16402;DHT22;8310;44.626;11.176;2023-06-05T09:01:53;21.40;60.70
16402;DHT22;8310;44.626;11.176;2023-06-05T09:04:20;21.40;60.60
16402;DHT22;8310;44.626;11.176;2023-06-05T09:06:49;21.40;60.70
16402;DHT22;8310;44.626;11.176;2023-06-05T09:09:18;21.40;60.60
16402;DHT22;8310;44.626;11.176;2023-06-05T09:11:45;21.40;60.70
16402;DHT22;8310;44.626;11.176;2023-06-05T09:14:12;21.40;60.60
16402;DHT22;8310;44.626;11.176;2023-06-05T09:16:39;21.30;60.60
16402;DHT22;8310;44.626;11.176;2023-06-05T09:19:07;21.30;60.70
16402;DHT22;8310;44.626;11.176;2023-06-05T09:21:35;21.30;60.70
16402;DHT22;8310;44.626;11.176;2023-06-05T09:24:16;21.30;60.80
16402;DHT22;8310;44.626;11.176;2023-06-05T09:26:48;21.30;60.70
16402;DHT22;8310;44.626;11.176;2023-06-05T09:29:26;21.30;60.80
16402;DHT22;8310;44.626;11.176;2023-06-05T09:32:16;21.30;60.90
16402;DHT22;8310;44.626;11.176;2023-06-05T09:34:43;21.30;60.90
16402;DHT22;8310;44.626;11.176;2023-06-05T09:37:13;21.40;61.00
16402;DHT22;8310;44.626;11.176;2023-06-05T09:39:42;21.40;61.00
16402;DHT22;8310;44.626;11.176;2023-06-05T09:42:09;21.40;60.90
16402;DHT22;8310;44.626;11.176;2023-06-05T09:44:36;21.40;61.00
16402;DHT22;8310;44.626;11.176;2023-06-05T09:47:04;21.40;61.00
16402;DHT22;8310;44.626;11.176;2023-06-05T09:49:33;21.40;61.00
16402;DHT22;8310;44.626;11.176;2023-06-05T09:52:12;21.40;61.10
16402;DHT22;8310;44.626;11.176;2023-06-05T09:54:42;21.40;61.10
16402;DHT22;8310;44.626;11.176;2023-06-05T09:57:10;21.40;61.00
16402;DHT22;8310;44.626;11.176;2023-06-05T09:59:40;21.40;61.10
16402;DHT22;8310;44.626;11.176;2023-06-05T10:02:16;21.40;61.20
16402;DHT22;8310;44.626;11.176;2023-06-05T10:04:44;21.40;61.10
16402;DHT22;8310;44.626;11.176;2023-06-05T10:07:13;21.40;61.20
16402;DHT22;8310;44.626;11.176;2023-06-05T10:09:42;21.50;61.20
16402;DHT22;8310;44.626;11.176;2023-06-05T10:12:09;21.50;61.30
16402;DHT22;8310;44.626;11.176;2023-06-05T10:14:40;21.50;61.30
16402;DHT22;8310;44.626;11.176;2023-06-05T10:17:08;21.50;61.40
16402;DHT22;8310;44.626;11.176;2023-06-05T10:19:35;21.60;61.40
16402;DHT22;8310;44.626;11.176;2023-06-05T10:22:02;21.60;61.40
16402;DHT22;8310;44.626;11.176;2023-06-05T10:24:30;21.60;61.40
16402;DHT22;8310;44.626;11.176;2023-06-05T10:30:03;21.70;61.60
16402;DHT22;8310;44.626;11.176;2023-06-05T10:32:36;21.70;61.60
16402;DHT22;8310;44.626;11.176;2023-06-05T10:35:06;21.80;62.10
16402;DHT22;8310;44.626;11.176;2023-06-05T10:37:37;21.90;61.70
16402;DHT22;8310;44.626;11.176;2023-06-05T10:40:06;21.80;61.70
16402;DHT22;8310;44.626;11.176;2023-06-05T10:42:34;21.90;61.90
16402;DHT22;8310;44.626;11.176;2023-06-05T10:45:05;22.00;62.00
16402;DHT22;8310;44.626;11.176;2023-06-05T10:47:48;22.00;62.10
16402;DHT22;8310;44.626;11.176;2023-06-05T10:50:19;22.10;62.10
16402;DHT22;8310;44.626;11.176;2023-06-05T10:52:48;22.20;62.10
16402;DHT22;8310;44.626;11.176;2023-06-05T10:55:15;22.20;62.20
16402;DHT22;8310;44.626;11.176;2023-06-05T11:00:30;22.30;62.30
16402;DHT22;8310;44.626;11.176;2023-06-05T11:02:57;22.40;62.50
16402;DHT22;8310;44.626;11.176;2023-06-05T11:05:24;22.50;62.50
16402;DHT22;8310;44.626;11.176;2023-06-05T11:10:34;22.60;62.50
16402;DHT22;8310;44.626;11.176;2023-06-05T11:13:02;22.60;62.60
16402;DHT22;8310;44.626;11.176;2023-06-05T11:15:38;22.70;62.80
16402;DHT22;8310;44.626;11.176;2023-06-05T11:20:51;22.80;62.60
16402;DHT22;8310;44.626;11.176;2023-06-05T11:23:18;22.90;62.70
16402;DHT22;8310;44.626;11.176;2023-06-05T11:25:47;23.00;62.70
16402;DHT22;8310;44.626;11.176;2023-06-05T11:30:59;23.10;62.70
16402;DHT22;8310;44.626;11.176;2023-06-05T11:33:28;23.10;62.60
16402;DHT22;8310;44.626;11.176;2023-06-05T11:35:59;23.20;62.60
16402;DHT22;8310;44.626;11.176;2023-06-05T11:38:26;23.20;62.50
16402;DHT22;8310;44.626;11.176;2023-06-05T11:40:53;23.20;62.50
16402;DHT22;8310;44.626;11.176;2023-06-05T11:43:21;23.20;62.50
16402;DHT22;8310;44.626;11.176;2023-06-05T11:45:49;23.20;62.40
16402;DHT22;8310;44.626;11.176;2023-06-05T11:48:18;23.20;62.40
16402;DHT22;8310;44.626;11.176;2023-06-05T11:50:52;23.30;62.50
16402;DHT22;8310;44.626;11.176;2023-06-05T11:53:19;23.30;62.50
16402;DHT22;8310;44.626;11.176;2023-06-05T11:55:50;23.40;62.50
16402;DHT22;8310;44.626;11.176;2023-06-05T11:58:33;23.40;62.40
16402;DHT22;8310;44.626;11.176;2023-06-05T12:01:26;23.40;62.60
16402;DHT22;8310;44.626;11.176;2023-06-05T12:04:03;23.50;62.80
16402;DHT22;8310;44.626;11.176;2023-06-05T12:06:30;23.50;62.90
16402;DHT22;8310;44.626;11.176;2023-06-05T12:09:06;23.60;62.90
16402;DHT22;8310;44.626;11.176;2023-06-05T12:11:33;23.70;63.00
16402;DHT22;8310;44.626;11.176;2023-06-05T12:14:00;23.70;63.00
16402;DHT22;8310;44.626;11.176;2023-06-05T12:16:31;23.80;63.20
16402;DHT22;8310;44.626;11.176;2023-06-05T12:18:59;23.90;63.10
16402;DHT22;8310;44.626;11.176;2023-06-05T12:21:27;23.90;63.10
16402;DHT22;8310;44.626;11.176;2023-06-05T12:24:04;24.00;63.20
16402;DHT22;8310;44.626;11.176;2023-06-05T12:26:47;24.00;63.10
16402;DHT22;8310;44.626;11.176;2023-06-05T12:29:18;24.00;62.80
16402;DHT22;8310;44.626;11.176;2023-06-05T12:31:45;24.10;62.70
16402;DHT22;8310;44.626;11.176;2023-06-05T12:34:13;24.00;62.70
16402;DHT22;8310;44.626;11.176;2023-06-05T12:36:42;24.00;62.50
16402;DHT22;8310;44.626;11.176;2023-06-05T12:39:11;24.00;62.60
16402;DHT22;8310;44.626;11.176;2023-06-05T12:41:38;24.00;62.90
16402;DHT22;8310;44.626;11.176;2023-06-05T12:44:06;24.20;63.30
16402;DHT22;8310;44.626;11.176;2023-06-05T12:46:33;24.30;63.60
16402;DHT22;8310;44.626;11.176;2023-06-05T12:49:00;24.40;63.70
16402;DHT22;8310;44.626;11.176;2023-06-05T12:51:28;24.50;63.40
16402;DHT22;8310;44.626;11.176;2023-06-05T12:53:57;24.60;63.00
16402;DHT22;8310;44.626;11.176;2023-06-05T12:56:24;24.60;63.30
16402;DHT22;8310;44.626;11.176;2023-06-05T12:58:55;24.60;63.10
16402;DHT22;8310;44.626;11.176;2023-06-05T13:01:23;24.60;62.80
16402;DHT22;8310;44.626;11.176;2023-06-05T13:03:51;24.60;63.20
16402;DHT22;8310;44.626;11.176;2023-06-05T13:06:18;24.60;63.10
16402;DHT22;8310;44.626;11.176;2023-06-05T13:08:45;24.60;63.00
16402;DHT22;8310;44.626;11.176;2023-06-05T13:11:14;24.70;63.20
16402;DHT22;8310;44.626;11.176;2023-06-05T13:13:42;24.80;63.20
16402;DHT22;8310;44.626;11.176;2023-06-05T13:16:09;24.80;63.20
16402;DHT22;8310;44.626;11.176;2023-06-05T13:18:37;25.00;63.40
16402;DHT22;8310;44.626;11.176;2023-06-05T13:21:04;25.00;63.30
16402;DHT22;8310;44.626;11.176;2023-06-05T13:23:31;25.10;63.30
16402;DHT22;8310;44.626;11.176;2023-06-05T13:25:59;25.20;63.40
16402;DHT22;8310;44.626;11.176;2023-06-05T13:28:28;25.30;63.40
16402;DHT22;8310;44.626;11.176;2023-06-05T13:30:55;25.40;63.50
16402;DHT22;8310;44.626;11.176;2023-06-05T13:33:22;25.40;63.60
16402;DHT22;8310;44.626;11.176;2023-06-05T13:35:50;25.60;64.20
16402;DHT22;8310;44.626;11.176;2023-06-05T13:38:17;25.70;63.90
16402;DHT22;8310;44.626;11.176;2023-06-05T13:40:44;25.80;63.50
16402;DHT22;8310;44.626;11.176;2023-06-05T13:43:14;25.80;63.30
16402;DHT22;8310;44.626;11.176;2023-06-05T13:45:43;25.80;63.50
16402;DHT22;8310;44.626;11.176;2023-06-05T13:48:10;25.90;63.40
16402;DHT22;8310;44.626;11.176;2023-06-05T13:50:38;25.90;63.10
16402;DHT22;8310;44.626;11.176;2023-06-05T13:53:05;25.90;62.90
16402;DHT22;8310;44.626;11.176;2023-06-05T13:55:32;25.90;62.80
16402;DHT22;8310;44.626;11.176;2023-06-05T13:57:59;25.90;62.80
16402;DHT22;8310;44.626;11.176;2023-06-05T14:00:28;25.80;62.60
16402;DHT22;8310;44.626;11.176;2023-06-05T14:02:56;25.80;62.50
16402;DHT22;8310;44.626;11.176;2023-06-05T14:05:24;25.70;62.30
16402;DHT22;8310;44.626;11.176;2023-06-05T14:07:51;25.70;62.20
16402;DHT22;8310;44.626;11.176;2023-06-05T14:10:19;25.60;62.20
16402;DHT22;8310;44.626;11.176;2023-06-05T14:12:47;25.50;62.00
16402;DHT22;8310;44.626;11.176;2023-06-05T14:15:14;25.40;61.80
16402;DHT22;8310;44.626;11.176;2023-06-05T14:17:43;25.40;61.80
16402;DHT22;8310;44.626;11.176;2023-06-05T14:20:11;25.20;61.60
16402;DHT22;8310;44.626;11.176;2023-06-05T14:22:39;25.20;61.70
16402;DHT22;8310;44.626;11.176;2023-06-05T14:25:06;25.10;61.70
16402;DHT22;8310;44.626;11.176;2023-06-05T14:27:35;25.00;61.80
16402;DHT22;8310;44.626;11.176;2023-06-05T14:30:03;25.00;62.00
16402;DHT22;8310;44.626;11.176;2023-06-05T14:32:29;25.00;61.90
16402;DHT22;8310;44.626;11.176;2023-06-05T14:34:57;24.90;62.00
16402;DHT22;8310;44.626;11.176;2023-06-05T14:37:25;24.80;61.80
16402;DHT22;8310;44.626;11.176;2023-06-05T14:39:53;24.80;61.90
16402;DHT22;8310;44.626;11.176;2023-06-05T14:42:21;24.80;62.00
16402;DHT22;8310;44.626;11.176;2023-06-05T14:44:48;24.80;62.00
16402;DHT22;8310;44.626;11.176;2023-06-05T14:47:16;24.80;62.10
16402;DHT22;8310;44.626;11.176;2023-06-05T14:49:43;24.80;61.90
16402;DHT22;8310;44.626;11.176;2023-06-05T14:52:10;24.70;61.70
16402;DHT22;8310;44.626;11.176;2023-06-05T14:54:38;24.70;61.70
16402;DHT22;8310;44.626;11.176;2023-06-05T14:57:06;24.70;61.80
16402;DHT22;8310;44.626;11.176;2023-06-05T14:59:33;24.70;61.80
16402;DHT22;8310;44.626;11.176;2023-06-05T15:02:01;24.60;61.70
16402;DHT22;8310;44.626;11.176;2023-06-05T15:04:28;24.60;61.70
16402;DHT22;8310;44.626;11.176;2023-06-05T15:06:56;24.60;61.70
16402;DHT22;8310;44.626;11.176;2023-06-05T15:09:23;24.60;61.60
16402;DHT22;8310;44.626;11.176;2023-06-05T15:11:52;24.60;61.60
16402;DHT22;8310;44.626;11.176;2023-06-05T15:14:21;24.60;61.60
16402;DHT22;8310;44.626;11.176;2023-06-05T15:16:49;24.60;61.70
16402;DHT22;8310;44.626;11.176;2023-06-05T15:19:16;24.60;61.70
16402;DHT22;8310;44.626;11.176;2023-06-05T15:21:43;24.60;61.80
16402;DHT22;8310;44.626;11.176;2023-06-05T15:24:10;24.60;61.80
16402;DHT22;8310;44.626;11.176;2023-06-05T15:26:37;24.60;61.80
16402;DHT22;8310;44.626;11.176;2023-06-05T15:29:06;24.60;61.90
16402;DHT22;8310;44.626;11.176;2023-06-05T15:31:33;24.60;61.70
16402;DHT22;8310;44.626;11.176;2023-06-05T15:34:00;24.60;61.70
16402;DHT22;8310;44.626;11.176;2023-06-05T15:36:27;24.60;61.70
16402;DHT22;8310;44.626;11.176;2023-06-05T15:38:55;24.60;61.80
16402;DHT22;8310;44.626;11.176;2023-06-05T15:41:22;24.60;62.00
16402;DHT22;8310;44.626;11.176;2023-06-05T15:43:50;24.60;62.10
16402;DHT22;8310;44.626;11.176;2023-06-05T15:46:18;24.70;62.40
16402;DHT22;8310;44.626;11.176;2023-06-05T15:48:45;24.80;62.60
16402;DHT22;8310;44.626;11.176;2023-06-05T15:51:12;24.90;62.60